sensor_id;sensor_type;location;lat;lon;timestamp;temperature;humidity
15596;DHT22;7898;48.658;9.068;2022-12-10T11:55:05;2.40;99.90
15596;DHT22;7898;48.658;9.068;2022-12-10T11:57:42;2.40;99.90
15596;DHT22;7898;48.658;9.068;2022-12-10T12:00:20;3.10;99.90
15596;DHT22;7898;48.658;9.068;2022-12-10T12:03:07;2.30;99.90
15596;DHT22;7898;48.658;9.068;2022-12-10T12:05:52;3.20;99.90
15596;DHT22;7898;48.658;9.068;2022-12-10T12:08:31;3.00;99.90
15596;DHT22;7898;48.658;9.068;2022-12-10T12:11:25;3.40;99.90
15596;DHT22;7898;48.658;9.068;2022-12-10T12:14:08;2.40;99.90
15596;DHT22;7898;48.658;9.068;2022-12-10T12:16:42;2.40;99.90
15596;DHT22;7898;48.658;9.068;2022-12-10T12:19:14;2.40;99.90
15596;DHT22;7898;48.658;9.068;2022-12-10T12:21:44;3.00;99.90
15596;DHT22;7898;48.658;9.068;2022-12-10T12:24:18;2.40;99.90
15596;DHT22;7898;48.658;9.068;2022-12-10T12:26:52;3.10;99.90
15596;DHT22;7898;48.658;9.068;2022-12-10T12:29:23;2.40;99.90
15596;DHT22;7898;48.658;9.068;2022-12-10T12:31:57;2.70;99.90
15596;DHT22;7898;48.658;9.068;2022-12-10T12:34:28;3.50;99.90
15596;DHT22;7898;48.658;9.068;2022-12-10T12:36:59;3.00;99.90
15596;DHT22;7898;48.658;9.068;2022-12-10T12:39:32;3.50;99.90
15596;DHT22;7898;48.658;9.068;2022-12-10T12:42:10;3.40;99.90
15596;DHT22;7898;48.658;9.068;2022-12-10T12:44:47;2.50;99.90
15596;DHT22;7898;48.658;9.068;2022-12-10T12:47:26;2.40;99.90
15596;DHT22;7898;48.658;9.068;2022-12-10T12:49:57;2.90;99.90
15596;DHT22;7898;48.658;9.068;2022-12-10T12:52:32;2.40;99.90
15596;DHT22;7898;48.658;9.068;2022-12-10T12:55:04;1.50;99.90
15596;DHT22;7898;48.658;9.068;2022-12-10T12:57:41;2.30;99.90
15596;DHT22;7898;48.658;9.068;2022-12-10T13:00:13;2.50;99.90
15596;DHT22;7898;48.658;9.068;2022-12-10T13:02:56;2.20;99.90
15596;DHT22;7898;48.658;9.068;2022-12-10T13:05:27;3.00;99.90
15596;DHT22;7898;48.658;9.068;2022-12-10T13:08:28;2.30;99.90
15596;DHT22;7898;48.658;9.068;2022-12-10T13:11:15;3.00;99.90
15596;DHT22;7898;48.658;9.068;2022-12-10T13:14:04;2.30;99.90
15596;DHT22;7898;48.658;9.068;2022-12-10T13:16:48;2.60;99.90
15596;DHT22;7898;48.658;9.068;2022-12-10T13:19:25;2.90;99.90
15596;DHT22;7898;48.658;9.068;2022-12-10T13:22:39;2.40;99.90
15596;DHT22;7898;48.658;9.068;2022-12-10T13:25:11;2.80;99.90
15596;DHT22;7898;48.658;9.068;2022-12-10T13:27:40;2.20;99.90
15596;DHT22;7898;48.658;9.068;2022-12-10T13:30:36;2.20;99.90
15596;DHT22;7898;48.658;9.068;2022-12-10T13:33:15;1.60;99.90
15596;DHT22;7898;48.658;9.068;2022-12-10T13:35:50;2.10;99.90
15596;DHT22;7898;48.658;9.068;2022-12-10T13:38:24;2.20;99.90
15596;DHT22;7898;48.658;9.068;2022-12-10T13:41:03;2.90;99.90
15596;DHT22;7898;48.658;9.068;2022-12-10T13:43:56;2.10;99.90
15596;DHT22;7898;48.658;9.068;2022-12-10T13:46:55;1.70;99.90
15596;DHT22;7898;48.658;9.068;2022-12-10T13:49:24;2.00;99.90
15596;DHT22;7898;48.658;9.068;2022-12-10T13:52:00;2.50;99.90
15596;DHT22;7898;48.658;9.068;2022-12-10T13:54:59;1.80;99.90
15596;DHT22;7898;48.658;9.068;2022-12-10T13:57:45;1.80;99.90
15596;DHT22;7898;48.658;9.068;2022-12-10T14:00:15;1.70;99.90
15596;DHT22;7898;48.658;9.068;2022-12-10T14:03:00;2.60;99.90
15596;DHT22;7898;48.658;9.068;2022-12-10T14:05:42;1.50;99.90
15596;DHT22;7898;48.658;9.068;2022-12-10T14:08:18;2.00;99.90
15596;DHT22;7898;48.658;9.068;2022-12-10T14:10:50;2.10;99.90
15596;DHT22;7898;48.658;9.068;2022-12-10T14:13:20;2.10;99.90
15596;DHT22;7898;48.658;9.068;2022-12-10T14:15:54;1.50;99.90
15596;DHT22;7898;48.658;9.068;2022-12-10T14:18:23;1.50;99.90
15596;DHT22;7898;48.658;9.068;2022-12-10T14:20:53;1.40;99.90
15596;DHT22;7898;48.658;9.068;2022-12-10T14:23:25;1.40;99.90
15596;DHT22;7898;48.658;9.068;2022-12-10T14:26:06;1.40;99.90
15596;DHT22;7898;48.658;9.068;2022-12-10T14:28:39;1.80;99.90
15596;DHT22;7898;48.658;9.068;2022-12-10T14:31:11;1.20;99.90
15596;DHT22;7898;48.658;9.068;2022-12-10T14:33:41;1.20;99.90
15596;DHT22;7898;48.658;9.068;2022-12-10T14:36:15;1.10;99.90
15596;DHT22;7898;48.658;9.068;2022-12-10T14:38:45;1.00;99.90
15596;DHT22;7898;48.658;9.068;2022-12-10T14:41:17;1.90;99.90
15596;DHT22;7898;48.658;9.068;2022-12-10T14:51:33;0.90;99.90
15596;DHT22;7898;48.658;9.068;2022-12-10T14:54:00;0.90;99.90
15596;DHT22;7898;48.658;9.068;2022-12-10T14:56:30;1.00;99.90
15596;DHT22;7898;48.658;9.068;2022-12-10T14:59:04;1.00;99.90
15596;DHT22;7898;48.658;9.068;2022-12-10T15:01:34;0.90;99.90
15596;DHT22;7898;48.658;9.068;2022-12-10T15:04:05;0.80;99.90
15596;DHT22;7898;48.658;9.068;2022-12-10T15:06:35;0.80;99.90
15596;DHT22;7898;48.658;9.068;2022-12-10T15:09:04;0.80;99.90
15596;DHT22;7898;48.658;9.068;2022-12-10T15:11:32;0.80;99.90
15596;DHT22;7898;48.658;9.068;2022-12-10T15:14:00;0.80;99.90
15596;DHT22;7898;48.658;9.068;2022-12-10T15:16:30;0.80;99.90
15596;DHT22;7898;48.658;9.068;2022-12-10T15:19:19;0.80;99.90
15596;DHT22;7898;48.658;9.068;2022-12-10T15:21:49;0.80;99.90
15596;DHT22;7898;48.658;9.068;2022-12-10T15:24:20;0.70;99.90
15596;DHT22;7898;48.658;9.068;2022-12-10T15:26:49;0.60;99.90
15596;DHT22;7898;48.658;9.068;2022-12-10T15:29:33;0.60;99.90
15596;DHT22;7898;48.658;9.068;2022-12-10T15:32:05;0.60;99.90
15596;DHT22;7898;48.658;9.068;2022-12-10T15:34:39;0.60;99.90
15596;DHT22;7898;48.658;9.068;2022-12-10T15:37:20;0.60;99.90
15596;DHT22;7898;48.658;9.068;2022-12-10T15:39:50;0.60;99.90
15596;DHT22;7898;48.658;9.068;2022-12-10T15:42:37;0.50;99.90
15596;DHT22;7898;48.658;9.068;2022-12-10T15:45:15;0.40;99.90
15596;DHT22;7898;48.658;9.068;2022-12-10T15:47:43;0.50;99.90
15596;DHT22;7898;48.658;9.068;2022-12-10T15:50:10;0.50;99.90
15596;DHT22;7898;48.658;9.068;2022-12-10T15:52:39;0.50;99.90
15596;DHT22;7898;48.658;9.068;2022-12-10T15:55:06;0.40;99.90
15596;DHT22;7898;48.658;9.068;2022-12-10T15:57:35;0.40;99.90
15596;DHT22;7898;48.658;9.068;2022-12-10T16:00:05;0.40;99.90
15596;DHT22;7898;48.658;9.068;2022-12-10T16:02:36;0.40;99.90
15596;DHT22;7898;48.658;9.068;2022-12-10T16:05:11;0.30;99.90
15596;DHT22;7898;48.658;9.068;2022-12-10T16:07:40;0.30;99.90
15596;DHT22;7898;48.658;9.068;2022-12-10T16:10:11;0.30;99.90
15596;DHT22;7898;48.658;9.068;2022-12-10T16:12:38;0.30;99.90
15596;DHT22;7898;48.658;9.068;2022-12-10T16:15:07;0.40;99.90
15596;DHT22;7898;48.658;9.068;2022-12-10T16:17:35;0.30;99.90
15596;DHT22;7898;48.658;9.068;2022-12-10T16:20:17;0.30;99.90
15596;DHT22;7898;48.658;9.068;2022-12-10T16:22:45;0.30;99.90
15596;DHT22;7898;48.658;9.068;2022-12-10T16:25:13;0.20;99.90
15596;DHT22;7898;48.658;9.068;2022-12-10T16:27:40;0.30;99.90
15596;DHT22;7898;48.658;9.068;2022-12-10T16:30:13;0.30;99.90
15596;DHT22;7898;48.658;9.068;2022-12-10T16:32:40;0.30;99.90
15596;DHT22;7898;48.658;9.068;2022-12-10T16:35:07;0.30;99.90
15596;DHT22;7898;48.658;9.068;2022-12-10T16:37:34;0.20;99.90
15596;DHT22;7898;48.658;9.068;2022-12-10T16:40:03;0.30;99.90
15596;DHT22;7898;48.658;9.068;2022-12-10T16:42:30;0.30;99.90
15596;DHT22;7898;48.658;9.068;2022-12-10T16:44:57;0.30;99.90
15596;DHT22;7898;48.658;9.068;2022-12-10T16:47:24;0.30;99.90
15596;DHT22;7898;48.658;9.068;2022-12-10T16:49:51;0.30;99.90
15596;DHT22;7898;48.658;9.068;2022-12-10T16:52:18;0.40;99.90
15596;DHT22;7898;48.658;9.068;2022-12-10T16:54:45;0.20;99.90
15596;DHT22;7898;48.658;9.068;2022-12-10T16:57:14;0.20;99.90
15596;DHT22;7898;48.658;9.068;2022-12-10T16:59:41;0.10;99.90
15596;DHT22;7898;48.658;9.068;2022-12-10T17:02:13;0.10;99.90
15596;DHT22;7898;48.658;9.068;2022-12-10T17:04:40;0.10;99.90
15596;DHT22;7898;48.658;9.068;2022-12-10T17:07:08;0.10;99.90
15596;DHT22;7898;48.658;9.068;2022-12-10T17:09:36;0.10;99.90
15596;DHT22;7898;48.658;9.068;2022-12-10T17:12:04;0.00;99.90
15596;DHT22;7898;48.658;9.068;2022-12-10T17:14:33;0.00;99.90
15596;DHT22;7898;48.658;9.068;2022-12-10T17:17:01;0.00;99.90
15596;DHT22;7898;48.658;9.068;2022-12-10T17:19:31;0.00;99.90
15596;DHT22;7898;48.658;9.068;2022-12-10T17:21:58;0.00;99.90
15596;DHT22;7898;48.658;9.068;2022-12-10T17:24:26;-0.10;99.90
15596;DHT22;7898;48.658;9.068;2022-12-10T17:26:55;-0.10;99.90
15596;DHT22;7898;48.658;9.068;2022-12-10T17:29:25;0.00;99.90
15596;DHT22;7898;48.658;9.068;2022-12-10T17:31:55;-0.10;99.90
15596;DHT22;7898;48.658;9.068;2022-12-10T17:34:22;-0.10;99.90
15596;DHT22;7898;48.658;9.068;2022-12-10T17:36:50;-0.20;99.90
15596;DHT22;7898;48.658;9.068;2022-12-10T17:39:19;-0.10;99.90
15596;DHT22;7898;48.658;9.068;2022-12-10T17:41:46;-0.20;99.90
15596;DHT22;7898;48.658;9.068;2022-12-10T17:44:13;-0.20;99.90
15596;DHT22;7898;48.658;9.068;2022-12-10T17:46:40;-0.20;99.90
15596;DHT22;7898;48.658;9.068;2022-12-10T17:49:11;-0.20;99.90
15596;DHT22;7898;48.658;9.068;2022-12-10T17:51:38;-0.20;99.90
15596;DHT22;7898;48.658;9.068;2022-12-10T17:54:06;-0.30;99.90
15596;DHT22;7898;48.658;9.068;2022-12-10T17:56:33;0.20;99.90
15596;DHT22;7898;48.658;9.068;2022-12-10T17:59:00;-0.20;99.90
15596;DHT22;7898;48.658;9.068;2022-12-10T18:01:27;-0.20;99.90
15596;DHT22;7898;48.658;9.068;2022-12-10T18:03:56;-0.20;99.90
15596;DHT22;7898;48.658;9.068;2022-12-10T18:06:26;-0.20;99.90
15596;DHT22;7898;48.658;9.068;2022-12-10T18:08:55;-0.20;99.90
15596;DHT22;7898;48.658;9.068;2022-12-10T18:11:27;-0.20;99.90
15596;DHT22;7898;48.658;9.068;2022-12-10T18:13:55;-0.20;99.90
15596;DHT22;7898;48.658;9.068;2022-12-10T18:16:23;-0.20;99.90
15596;DHT22;7898;48.658;9.068;2022-12-10T18:18:53;-0.20;99.90
15596;DHT22;7898;48.658;9.068;2022-12-10T18:21:20;-0.20;99.90
15596;DHT22;7898;48.658;9.068;2022-12-10T18:23:49;-0.30;99.90
15596;DHT22;7898;48.658;9.068;2022-12-10T18:26:18;-0.30;99.90
15596;DHT22;7898;48.658;9.068;2022-12-10T18:28:48;-0.30;99.90
15596;DHT22;7898;48.658;9.068;2022-12-10T18:31:19;-0.30;99.90
15596;DHT22;7898;48.658;9.068;2022-12-10T18:33:48;-0.30;99.90
15596;DHT22;7898;48.658;9.068;2022-12-10T18:36:18;-0.40;99.90
15596;DHT22;7898;48.658;9.068;2022-12-10T18:38:45;-0.40;99.90
15596;DHT22;7898;48.658;9.068;2022-12-10T18:41:15;-0.40;99.90
15596;DHT22;7898;48.658;9.068;2022-12-10T18:43:42;-0.30;99.90
15596;DHT22;7898;48.658;9.068;2022-12-10T18:46:12;-0.30;99.90
15596;DHT22;7898;48.658;9.068;2022-12-10T18:48:40;-0.20;99.90
15596;DHT22;7898;48.658;9.068;2022-12-10T18:51:07;-0.20;99.90
15596;DHT22;7898;48.658;9.068;2022-12-10T18:53:34;-0.20;99.90
15596;DHT22;7898;48.658;9.068;2022-12-10T18:56:02;-0.20;99.90
15596;DHT22;7898;48.658;9.068;2022-12-10T18:58:31;-0.20;99.90
15596;DHT22;7898;48.658;9.068;2022-12-10T19:00:58;-0.20;99.90
15596;DHT22;7898;48.658;9.068;2022-12-10T19:03:25;-0.20;99.90
15596;DHT22;7898;48.658;9.068;2022-12-10T19:05:52;-0.20;99.90
15596;DHT22;7898;48.658;9.068;2022-12-10T19:08:19;-0.20;99.90
15596;DHT22;7898;48.658;9.068;2022-12-10T19:10:45;-0.20;99.90
15596;DHT22;7898;48.658;9.068;2022-12-10T19:13:12;0.10;99.90
15596;DHT22;7898;48.658;9.068;2022-12-10T19:15:41;-0.20;99.90
15596;DHT22;7898;48.658;9.068;2022-12-10T19:18:09;-0.30;99.90
15596;DHT22;7898;48.658;9.068;2022-12-10T19:20:36;-0.30;99.90
15596;DHT22;7898;48.658;9.068;2022-12-10T19:23:04;-0.30;99.90
15596;DHT22;7898;48.658;9.068;2022-12-10T19:25:31;-0.40;99.90
15596;DHT22;7898;48.658;9.068;2022-12-10T19:27:58;-0.30;99.90
15596;DHT22;7898;48.658;9.068;2022-12-10T19:30:26;-0.30;99.90
15596;DHT22;7898;48.658;9.068;2022-12-10T19:32:55;-0.20;99.90
15596;DHT22;7898;48.658;9.068;2022-12-10T19:35:24;-0.20;99.90
15596;DHT22;7898;48.658;9.068;2022-12-10T19:37:52;-0.20;99.90
15596;DHT22;7898;48.658;9.068;2022-12-10T19:40:21;-0.10;99.90
15596;DHT22;7898;48.658;9.068;2022-12-10T19:42:49;-0.20;99.90
15596;DHT22;7898;48.658;9.068;2022-12-10T19:45:16;-0.10;99.90
15596;DHT22;7898;48.658;9.068;2022-12-10T19:47:44;-0.10;99.90
15596;DHT22;7898;48.658;9.068;2022-12-10T19:50:14;-0.10;99.90
15596;DHT22;7898;48.658;9.068;2022-12-10T19:52:43;0.00;99.90
15596;DHT22;7898;48.658;9.068;2022-12-10T19:55:10;0.00;99.90
15596;DHT22;7898;48.658;9.068;2022-12-10T19:57:37;0.00;99.90
15596;DHT22;7898;48.658;9.068;2022-12-10T20:00:06;0.00;99.90
15596;DHT22;7898;48.658;9.068;2022-12-10T20:02:35;-0.10;99.90
15596;DHT22;7898;48.658;9.068;2022-12-10T20:05:02;-0.10;99.90
15596;DHT22;7898;48.658;9.068;2022-12-10T20:07:31;-0.10;99.90
15596;DHT22;7898;48.658;9.068;2022-12-10T20:09:58;-0.10;99.90
15596;DHT22;7898;48.658;9.068;2022-12-10T20:12:25;-0.10;99.90
15596;DHT22;7898;48.658;9.068;2022-12-10T20:14:53;-0.10;99.90
15596;DHT22;7898;48.658;9.068;2022-12-10T20:17:20;-0.10;99.90
15596;DHT22;7898;48.658;9.068;2022-12-10T20:19:49;-0.10;99.90
15596;DHT22;7898;48.658;9.068;2022-12-10T20:22:17;-0.10;99.90
15596;DHT22;7898;48.658;9.068;2022-12-10T20:24:46;-0.10;99.90
15596;DHT22;7898;48.658;9.068;2022-12-10T20:27:15;-0.10;99.90
15596;DHT22;7898;48.658;9.068;2022-12-10T20:29:42;-0.10;99.90
15596;DHT22;7898;48.658;9.068;2022-12-10T20:32:09;-0.10;99.90
15596;DHT22;7898;48.658;9.068;2022-12-10T20:34:36;-0.10;99.90
15596;DHT22;7898;48.658;9.068;2022-12-10T20:37:03;-0.20;99.90
15596;DHT22;7898;48.658;9.068;2022-12-10T20:39:33;-0.10;99.90
15596;DHT22;7898;48.658;9.068;2022-12-10T20:42:01;-0.20;99.90
15596;DHT22;7898;48.658;9.068;2022-12-10T20:44:29;-0.20;99.90
15596;DHT22;7898;48.658;9.068;2022-12-10T20:46:57;-0.20;99.90
15596;DHT22;7898;48.658;9.068;2022-12-10T20:49:25;-0.20;99.90
15596;DHT22;7898;48.658;9.068;2022-12-10T20:51:52;-0.20;99.90
15596;DHT22;7898;48.658;9.068;2022-12-10T20:54:19;-0.30;99.90
15596;DHT22;7898;48.658;9.068;2022-12-10T20:56:46;-0.30;99.90
15596;DHT22;7898;48.658;9.068;2022-12-10T20:59:16;-0.30;99.90
15596;DHT22;7898;48.658;9.068;2022-12-10T21:01:43;-0.40;99.90
15596;DHT22;7898;48.658;9.068;2022-12-10T21:04:10;-0.40;99.90
15596;DHT22;7898;48.658;9.068;2022-12-10T21:06:37;-0.40;99.90
15596;DHT22;7898;48.658;9.068;2022-12-10T21:09:05;-0.50;99.90
15596;DHT22;7898;48.658;9.068;2022-12-10T21:11:32;-0.50;99.90
15596;DHT22;7898;48.658;9.068;2022-12-10T21:14:01;-0.60;99.90
15596;DHT22;7898;48.658;9.068;2022-12-10T21:16:30;-0.60;99.90
15596;DHT22;7898;48.658;9.068;2022-12-10T21:18:58;-0.60;99.90
15596;DHT22;7898;48.658;9.068;2022-12-10T21:21:25;-0.60;99.90
15596;DHT22;7898;48.658;9.068;2022-12-10T21:23:53;-0.60;99.90
15596;DHT22;7898;48.658;9.068;2022-12-10T21:26:21;-0.60;99.90
15596;DHT22;7898;48.658;9.068;2022-12-10T21:28:48;-0.70;99.90
15596;DHT22;7898;48.658;9.068;2022-12-10T21:31:17;-0.70;99.90
15596;DHT22;7898;48.658;9.068;2022-12-10T21:33:47;-0.90;99.90
15596;DHT22;7898;48.658;9.068;2022-12-10T21:36:15;-0.90;99.90
15596;DHT22;7898;48.658;9.068;2022-12-10T21:38:42;-1.10;99.90
15596;DHT22;7898;48.658;9.068;2022-12-10T21:41:13;-1.10;99.90
15596;DHT22;7898;48.658;9.068;2022-12-10T21:43:59;-1.10;99.90
15596;DHT22;7898;48.658;9.068;2022-12-10T21:46:26;-1.20;99.90
15596;DHT22;7898;48.658;9.068;2022-12-10T21:48:55;-1.10;99.90
15596;DHT22;7898;48.658;9.068;2022-12-10T21:51:21;-1.20;99.90
15596;DHT22;7898;48.658;9.068;2022-12-10T21:53:48;-1.20;99.90
15596;DHT22;7898;48.658;9.068;2022-12-10T21:56:15;-1.30;99.90
15596;DHT22;7898;48.658;9.068;2022-12-10T21:58:42;-1.40;99.90
15596;DHT22;7898;48.658;9.068;2022-12-10T22:01:09;-1.40;99.90
15596;DHT22;7898;48.658;9.068;2022-12-10T22:03:38;-1.40;99.90
15596;DHT22;7898;48.658;9.068;2022-12-10T22:06:07;-1.50;99.90
15596;DHT22;7898;48.658;9.068;2022-12-10T22:08:35;-1.50;99.90
15596;DHT22;7898;48.658;9.068;2022-12-10T22:11:04;-1.60;99.90
15596;DHT22;7898;48.658;9.068;2022-12-10T22:13:32;-1.60;99.90
15596;DHT22;7898;48.658;9.068;2022-12-10T22:16:00;-1.50;99.90
15596;DHT22;7898;48.658;9.068;2022-12-10T22:18:27;-1.50;99.90
15596;DHT22;7898;48.658;9.068;2022-12-10T22:20:56;-1.50;99.90
15596;DHT22;7898;48.658;9.068;2022-12-10T22:23:25;-1.50;99.90
15596;DHT22;7898;48.658;9.068;2022-12-10T22:25:53;-1.40;99.90
15596;DHT22;7898;48.658;9.068;2022-12-10T22:28:20;-1.60;99.90
15596;DHT22;7898;48.658;9.068;2022-12-10T22:30:47;-1.70;99.90
15596;DHT22;7898;48.658;9.068;2022-12-10T22:33:15;-1.70;99.90
15596;DHT22;7898;48.658;9.068;2022-12-10T22:35:42;-1.70;99.90
15596;DHT22;7898;48.658;9.068;2022-12-10T22:38:11;-1.70;99.90
15596;DHT22;7898;48.658;9.068;2022-12-10T22:40:41;-1.50;99.90
15596;DHT22;7898;48.658;9.068;2022-12-10T22:43:08;-1.70;99.90
15596;DHT22;7898;48.658;9.068;2022-12-10T22:45:39;-1.60;99.90
15596;DHT22;7898;48.658;9.068;2022-12-10T22:48:06;-1.70;99.90
15596;DHT22;7898;48.658;9.068;2022-12-10T22:50:33;-1.70;99.90
15596;DHT22;7898;48.658;9.068;2022-12-10T22:53:00;-1.70;99.90
15596;DHT22;7898;48.658;9.068;2022-12-10T22:55:27;-1.80;99.90
15596;DHT22;7898;48.658;9.068;2022-12-10T22:57:55;-1.80;99.90
15596;DHT22;7898;48.658;9.068;2022-12-10T23:00:22;-1.90;99.90
15596;DHT22;7898;48.658;9.068;2022-12-10T23:02:49;-2.00;99.90
15596;DHT22;7898;48.658;9.068;2022-12-10T23:05:16;-2.00;99.90
15596;DHT22;7898;48.658;9.068;2022-12-10T23:07:43;-2.10;99.90
15596;DHT22;7898;48.658;9.068;2022-12-10T23:10:11;-2.10;99.90
15596;DHT22;7898;48.658;9.068;2022-12-10T23:12:38;-2.10;99.90
15596;DHT22;7898;48.658;9.068;2022-12-10T23:15:24;-2.20;99.90
15596;DHT22;7898;48.658;9.068;2022-12-10T23:17:51;-2.20;99.90
15596;DHT22;7898;48.658;9.068;2022-12-10T23:20:19;-2.20;99.90
15596;DHT22;7898;48.658;9.068;2022-12-10T23:22:46;-2.20;99.90
15596;DHT22;7898;48.658;9.068;2022-12-10T23:25:14;-2.30;99.90
15596;DHT22;7898;48.658;9.068;2022-12-10T23:27:41;-2.30;99.90
15596;DHT22;7898;48.658;9.068;2022-12-10T23:30:09;-2.30;99.90
15596;DHT22;7898;48.658;9.068;2022-12-10T23:32:39;-2.30;99.90
15596;DHT22;7898;48.658;9.068;2022-12-10T23:35:07;-2.40;99.90
15596;DHT22;7898;48.658;9.068;2022-12-10T23:37:34;-2.40;99.90
15596;DHT22;7898;48.658;9.068;2022-12-10T23:40:03;-2.50;99.90
15596;DHT22;7898;48.658;9.068;2022-12-10T23:42:31;-2.50;99.90
15596;DHT22;7898;48.658;9.068;2022-12-10T23:44:58;-2.50;99.90
15596;DHT22;7898;48.658;9.068;2022-12-10T23:47:25;-2.50;99.90
15596;DHT22;7898;48.658;9.068;2022-12-10T23:49:53;-2.20;99.90
15596;DHT22;7898;48.658;9.068;2022-12-10T23:52:20;-2.30;99.90
15596;DHT22;7898;48.658;9.068;2022-12-10T23:54:47;-2.60;99.90
15596;DHT22;7898;48.658;9.068;2022-12-10T23:57:14;-2.60;99.90
15596;DHT22;7898;48.658;9.068;2022-12-10T23:59:42;-2.60;99.90
